Time;durP1;ratioP1;P1;durP2;ratioP2;P2;SDS_P1;SDS_P2;PMS_P1;PMS_P2;Temp;Humidity;BMP_temperature;BMP_pressure;BME280_temperature;BME280_humidity;BME280_pressure;Samples;Min_cycle;Max_cycle;Signal;HPM_P1;HPM_P2
2022/04/24 00:00:00;;;;;;;32.35;15.70;;;;;;;12.35;57.64;99227.03;5053188;28;20091;-50
2022/04/24 00:02:25;;;;;;;35.45;16.42;;;;;;;12.27;57.48;99203.09;5050709;28;20040;-49
2022/04/24 00:05:10;;;;;;;31.67;14.68;;;;;;;12.40;57.01;99222.44;5056816;28;20541;-48
2022/04/24 00:07:36;;;;;;;33.10;14.68;;;;;;;12.43;57.21;99222.28;5058084;28;20051;-49
2022/04/24 00:10:03;;;;;;;32.03;15.45;;;;;;;12.43;57.15;99216.22;5054262;28;20041;-49
2022/04/24 00:12:29;;;;;;;30.33;14.82;;;;;;;12.41;57.29;99216.28;5053786;28;20037;-49
2022/04/24 00:14:54;;;;;;;25.45;15.20;;;;;;;12.38;57.13;99216.44;5054790;28;20777;-52
2022/04/24 00:17:20;;;;;;;26.77;14.57;;;;;;;12.36;57.31;99226.09;5050438;28;20048;-49
2022/04/24 00:19:48;;;;;;;31.48;16.13;;;;;;;12.33;57.39;99213.22;5062387;28;20521;-52
2022/04/24 00:22:14;;;;;;;27.90;14.15;;;;;;;12.29;57.60;99209.94;5057805;28;20095;-53
2022/04/24 00:24:39;;;;;;;35.22;15.45;;;;;;;12.27;57.37;99221.34;5047973;28;20492;-53
2022/04/24 00:27:07;;;;;;;35.08;16.27;;;;;;;12.26;57.54;99211.81;5052048;28;20090;-51
2022/04/24 00:29:33;;;;;;;33.45;15.18;;;;;;;12.24;57.55;99213.69;5064994;28;20123;-51
2022/04/24 00:31:59;;;;;;;29.58;14.50;;;;;;;12.09;58.08;99191.78;5053683;28;20122;-54
2022/04/24 00:34:24;;;;;;;34.83;15.02;;;;;;;12.12;57.72;99211.66;5049833;28;20509;-53
2022/04/24 00:36:50;;;;;;;30.20;14.68;;;;;;;12.09;58.14;99212.63;5079265;28;20428;-54
2022/04/24 00:39:16;;;;;;;38.35;16.45;;;;;;;12.08;57.98;99215.34;5064332;28;20037;-53
2022/04/24 00:41:46;;;;;;;33.25;15.63;;;;;;;12.09;58.22;99209.22;5057017;28;20056;-50
2022/04/24 00:44:12;;;;;;;34.67;14.98;;;;;;;12.04;57.83;99191.16;5080702;28;20578;-54
2022/04/24 00:46:58;;;;;;;27.33;15.10;;;;;;;12.17;57.77;99205.31;5074224;28;20060;-49
2022/04/24 00:49:25;;;;;;;28.92;14.52;;;;;;;12.16;58.21;99205.38;5065784;28;20459;-54
2022/04/24 00:51:51;;;;;;;24.67;13.82;;;;;;;12.15;57.86;99204.53;5046995;28;20489;-52
2022/04/24 00:54:17;;;;;;;30.27;14.90;;;;;;;12.15;58.18;99207.13;5049387;28;20043;-53
2022/04/24 00:56:43;;;;;;;32.30;13.88;;;;;;;12.14;58.24;99202.03;5048503;28;20044;-51
2022/04/24 00:59:11;;;;;;;30.02;14.52;;;;;;;12.17;58.50;99197.50;5047083;28;20049;-54
2022/04/24 01:01:37;;;;;;;28.48;14.38;;;;;;;12.20;58.23;99199.09;5047996;28;20536;-53
2022/04/24 01:04:05;;;;;;;25.33;14.35;;;;;;;12.25;57.99;99200.56;5046772;28;20106;-51
2022/04/24 01:06:39;;;;;;;27.05;13.40;;;;;;;12.28;58.19;99190.00;5055492;28;20501;-55
2022/04/24 01:09:35;;;;;;;27.20;13.75;;;;;;;12.33;57.88;99189.78;5047048;28;20037;-52
2022/04/24 01:12:01;;;;;;;32.55;14.73;;;;;;;12.35;57.88;99187.94;5044660;28;20041;-50
2022/04/24 01:14:28;;;;;;;26.75;14.32;;;;;;;12.32;57.50;99185.47;5046181;28;20428;-52
2022/04/24 01:16:54;;;;;;;28.00;13.98;;;;;;;12.15;57.81;99157.63;5040493;28;20477;-53
2022/04/24 01:19:20;;;;;;;25.95;13.98;;;;;;;12.12;57.92;99164.75;5047687;28;20040;-52
2022/04/24 01:21:48;;;;;;;26.77;14.57;;;;;;;12.20;57.71;99175.63;5047163;28;20428;-51
2022/04/24 01:24:17;;;;;;;27.08;13.55;;;;;;;12.19;57.66;99184.41;5055735;28;20043;-50
2022/04/24 01:26:43;;;;;;;25.55;14.52;;;;;;;12.24;57.65;99187.63;5053523;28;20110;-49
2022/04/24 01:29:11;;;;;;;26.45;13.90;;;;;;;12.25;57.81;99191.88;5065436;28;20044;-50
2022/04/24 01:31:38;;;;;;;26.33;13.60;;;;;;;12.21;57.99;99190.34;5068640;28;20044;-51
2022/04/24 01:34:04;;;;;;;23.50;13.82;;;;;;;12.18;57.78;99188.75;5054527;28;20037;-50
2022/04/24 01:36:30;;;;;;;30.17;14.07;;;;;;;12.09;57.94;99172.75;5048638;28;20052;-51
2022/04/24 01:38:56;;;;;;;25.13;13.75;;;;;;;12.19;58.08;99182.63;5075972;28;20088;-52
2022/04/24 01:41:22;;;;;;;33.03;13.23;;;;;;;12.06;57.86;99165.91;5051927;28;20041;-53
2022/04/24 01:43:49;;;;;;;32.03;13.95;;;;;;;12.06;57.98;99158.09;5049969;28;20039;-49
2022/04/24 01:46:15;;;;;;;42.35;15.52;;;;;;;12.13;57.37;99171.66;5061929;28;20087;-51
2022/04/24 01:48:41;;;;;;;29.75;14.57;;;;;;;12.29;57.98;99183.03;5062362;28;20119;-53
2022/04/24 01:51:08;;;;;;;25.30;13.18;;;;;;;12.33;57.42;99184.56;5048539;28;20048;-53
2022/04/24 01:53:34;;;;;;;27.77;14.48;;;;;;;12.35;57.32;99171.44;5048423;28;20086;-56
2022/04/24 01:56:04;;;;;;;24.15;13.30;;;;;;;12.38;57.88;99184.31;5064073;28;20055;-52
2022/04/24 01:58:29;;;;;;;;;;;;;;;12.40;57.63;99179.88;5048432;28;20409;-53
2022/04/24 02:00:55;;;;;;;27.45;12.75;;;;;;;12.41;57.36;99173.72;5061104;28;20361;-52
2022/04/24 02:03:22;;;;;;;30.17;13.27;;;;;;;12.39;57.63;99171.22;5064875;28;20044;-51
2022/04/24 02:05:48;;;;;;;23.85;13.25;;;;;;;12.26;57.41;99144.06;5058868;28;20147;-54
2022/04/24 02:08:14;;;;;;;25.52;13.18;;;;;;;12.24;57.28;99138.09;5047732;28;20088;-51
2022/04/24 02:10:41;;;;;;;23.27;13.75;;;;;;;12.44;57.30;99173.59;5080519;28;20574;-53
2022/04/24 02:13:07;;;;;;;27.48;13.45;;;;;;;12.45;57.52;99172.69;5057669;28;20078;-50
2022/04/24 02:15:34;;;;;;;30.00;13.13;;;;;;;12.40;57.36;99157.28;5066136;28;20044;-50
2022/04/24 02:18:00;;;;;;;23.27;13.00;;;;;;;12.40;56.84;99151.22;5053967;28;20036;-54
2022/04/24 02:20:25;;;;;;;24.88;12.52;;;;;;;12.51;57.28;99164.56;5066774;28;20052;-52
2022/04/24 02:22:51;;;;;;;28.88;12.55;;;;;;;12.54;57.18;99162.63;5053705;28;20121;-53
2022/04/24 02:25:17;;;;;;;26.00;13.93;;;;;;;12.45;57.08;99152.66;5067356;28;20524;-52
2022/04/24 02:27:44;;;;;;;29.67;13.27;;;;;;;12.53;57.27;99154.88;5056979;28;20036;-50
2022/04/24 02:30:10;;;;;;;27.25;12.98;;;;;;;12.45;56.53;99144.00;5050396;28;20044;-49
2022/04/24 02:32:35;;;;;;;23.80;12.48;;;;;;;12.54;57.10;99167.00;5053062;28;20093;-50
2022/04/24 02:35:02;;;;;;;23.38;12.73;;;;;;;12.52;56.93;99155.78;5047944;28;20599;-51
2022/04/24 02:37:31;;;;;;;22.35;12.00;;;;;;;12.41;56.73;99138.06;5045083;28;20426;-51
2022/04/24 02:39:59;;;;;;;24.33;11.95;;;;;;;12.48;56.72;99149.06;5046542;28;20040;-50
2022/04/24 02:42:25;;;;;;;25.15;12.55;;;;;;;12.45;56.82;99152.66;5068096;28;20377;-51
2022/04/24 02:44:51;;;;;;;24.55;13.15;;;;;;;12.46;56.90;99153.47;5054274;28;20072;-53
2022/04/24 02:47:17;;;;;;;24.67;12.25;;;;;;;12.46;56.95;99148.28;5047754;28;20103;-53
2022/04/24 02:49:43;;;;;;;20.05;11.90;;;;;;;12.28;56.98;99129.19;5076232;28;20517;-55
2022/04/24 02:52:08;;;;;;;22.58;12.23;;;;;;;12.43;56.83;99151.91;5070480;28;20040;-53
2022/04/24 02:54:35;;;;;;;25.63;12.32;;;;;;;12.43;57.24;99151.03;5063248;28;20420;-54
2022/04/24 02:57:01;;;;;;;23.65;11.80;;;;;;;12.38;56.69;99143.47;5055601;28;20087;-52
2022/04/24 02:59:29;;;;;;;23.05;12.48;;;;;;;12.47;56.97;99150.81;5067388;28;20040;-51
2022/04/24 03:01:55;;;;;;;22.70;11.70;;;;;;;12.49;56.91;99148.97;5069441;28;20094;-51
2022/04/24 03:04:21;;;;;;;22.92;11.38;;;;;;;12.40;56.94;99139.03;5064497;28;20057;-54
2022/04/24 03:06:47;;;;;;;22.88;12.40;;;;;;;12.45;56.86;99144.84;5052292;28;20083;-53
2022/04/24 03:09:14;;;;;;;21.63;11.45;;;;;;;12.48;57.03;99165.53;5055225;28;20094;-52
2022/04/24 03:11:40;;;;;;;20.38;10.60;;;;;;;12.50;56.71;99168.94;5057872;28;20586;-54
2022/04/24 03:14:06;;;;;;;22.02;11.77;;;;;;;12.51;56.91;99161.94;5051276;28;20044;-55
2022/04/24 03:16:31;;;;;;;20.50;10.65;;;;;;;12.46;57.22;99162.16;5060757;28;20081;-52
2022/04/24 03:18:57;;;;;;;22.27;10.88;;;;;;;12.49;57.31;99175.06;5064646;28;20040;-52
2022/04/24 03:21:23;;;;;;;21.88;11.32;;;;;;;12.48;57.02;99170.75;5065975;28;20051;-52
2022/04/24 03:23:49;;;;;;;18.75;10.75;;;;;;;12.48;57.06;99167.31;5051446;28;20052;-51
2022/04/24 03:26:15;;;;;;;19.70;10.50;;;;;;;12.49;56.93;99166.38;5052183;28;20131;-51
2022/04/24 03:28:42;;;;;;;21.02;10.50;;;;;;;12.51;57.45;99169.78;5031579;28;20090;-43
2022/04/24 03:31:08;;;;;;;24.65;9.95;;;;;;;12.54;57.39;99167.00;5032106;28;20045;-43
2022/04/24 03:33:34;;;;;;;29.90;11.05;;;;;;;12.51;57.23;99157.56;5050271;28;20041;-42
2022/04/24 03:36:00;;;;;;;23.80;10.82;;;;;;;12.55;57.05;99161.72;5050953;28;20420;-47
2022/04/24 03:38:25;;;;;;;17.33;9.55;;;;;;;12.59;56.71;99159.78;5061565;28;20044;-44
2022/04/24 03:40:51;;;;;;;19.08;10.00;;;;;;;12.63;56.86;99162.16;5071255;28;20040;-45
2022/04/24 03:43:17;;;;;;;21.42;10.10;;;;;;;12.67;56.66;99166.28;5064816;28;20053;-44
2022/04/24 03:45:43;;;;;;;22.45;11.15;;;;;;;12.68;56.83;99161.91;5031230;28;20073;-44
2022/04/24 03:48:09;;;;;;;19.48;9.85;;;;;;;12.62;56.92;99159.63;5029557;28;20524;-45
2022/04/24 03:50:34;;;;;;;18.77;9.90;;;;;;;12.70;56.68;99170.50;5030988;28;20429;-43
2022/04/24 03:53:00;;;;;;;15.75;9.50;;;;;;;12.70;56.71;99168.75;5057821;28;20484;-43
2022/04/24 03:55:29;;;;;;;18.38;8.98;;;;;;;12.61;56.86;99153.56;5081905;28;20041;-44
2022/04/24 03:57:55;;;;;;;15.20;9.30;;;;;;;12.68;56.58;99167.13;5048829;28;20071;-44
2022/04/24 04:00:20;;;;;;;17.08;8.57;;;;;;;12.62;56.98;99163.06;5046957;28;20036;-46
2022/04/24 04:02:47;;;;;;;18.02;9.30;;;;;;;12.57;57.15;99162.47;5049941;28;20045;-45
2022/04/24 04:05:16;;;;;;;14.80;9.15;;;;;;;12.55;57.30;99159.09;5049604;28;20059;-44
2022/04/24 04:07:42;;;;;;;17.60;9.43;;;;;;;12.53;57.22;99155.72;5050791;28;20072;-44
2022/04/24 04:10:08;;;;;;;18.58;9.20;;;;;;;12.43;57.26;99138.00;5055332;28;20067;-45
2022/04/24 04:12:34;;;;;;;16.25;9.05;;;;;;;12.43;57.38;99140.63;5056195;28;20520;-45
2022/04/24 04:15:01;;;;;;;18.20;9.98;;;;;;;12.49;57.25;99153.34;5048560;28;20033;-44
2022/04/24 04:17:27;;;;;;;16.45;9.75;;;;;;;12.48;57.58;99157.72;5043714;28;20184;-43
2022/04/24 04:19:52;;;;;;;18.42;10.10;;;;;;;12.44;57.63;99155.34;5050208;28;20123;-45
2022/04/24 04:22:19;;;;;;;21.15;10.38;;;;;;;12.46;57.52;99159.53;5048408;28;20040;-44
2022/04/24 04:24:44;;;;;;;16.88;10.23;;;;;;;12.44;57.32;99155.34;5048598;28;20051;-45
2022/04/24 04:27:10;;;;;;;21.67;11.20;;;;;;;12.44;57.21;99152.75;5049025;28;20049;-44
2022/04/24 04:29:36;;;;;;;24.25;11.70;;;;;;;12.42;57.20;99149.34;5049998;28;20044;-43
2022/04/24 04:32:02;;;;;;;24.88;11.88;;;;;;;12.40;57.42;99159.88;5081132;28;20094;-44
2022/04/24 04:34:28;;;;;;;21.50;11.48;;;;;;;12.41;57.62;99158.09;5050319;28;20420;-45
2022/04/24 04:36:54;;;;;;;21.63;11.95;;;;;;;12.41;57.48;99145.91;5056217;28;20055;-44
2022/04/24 04:39:20;;;;;;;26.15;11.30;;;;;;;12.44;57.51;99150.97;5066671;28;20040;-45
2022/04/24 04:41:46;;;;;;;21.83;11.27;;;;;;;12.49;57.41;99137.72;5063487;28;20394;-44
2022/04/24 04:44:12;;;;;;;20.75;10.35;;;;;;;12.52;57.51;99141.00;5058074;28;20040;-45
2022/04/24 04:46:38;;;;;;;22.30;10.30;;;;;;;12.51;57.20;99122.84;5064772;28;20040;-44
2022/04/24 04:49:04;;;;;;;26.45;10.85;;;;;;;12.65;57.11;99139.47;5050724;28;20523;-46
2022/04/24 04:51:30;;;;;;;19.80;9.60;;;;;;;12.64;56.88;99118.66;5050515;28;20045;-42
2022/04/24 04:53:56;;;;;;;19.02;9.77;;;;;;;12.75;56.73;99134.59;5036628;28;20089;-44
2022/04/24 04:56:23;;;;;;;21.13;10.00;;;;;;;12.63;56.74;99119.59;5054524;28;20405;-43
2022/04/24 04:58:50;;;;;;;18.30;10.50;;;;;;;12.74;56.58;99145.97;5050829;28;20047;-42
2022/04/24 05:01:16;;;;;;;18.38;9.90;;;;;;;12.70;56.93;99142.66;5057824;28;20045;-43
2022/04/24 05:03:42;;;;;;;19.30;9.75;;;;;;;12.64;57.01;99142.97;5047359;28;20064;-43
2022/04/24 05:06:07;;;;;;;17.75;9.55;;;;;;;12.58;57.55;99132.00;5049255;28;20070;-42
2022/04/24 05:08:33;;;;;;;19.38;8.95;;;;;;;12.56;57.42;99142.50;5050139;28;20112;-44
2022/04/24 05:11:00;;;;;;;17.10;9.13;;;;;;;12.59;57.37;99136.31;5046408;28;20077;-42
2022/04/24 05:13:25;;;;;;;17.40;9.88;;;;;;;12.56;57.11;99126.88;5046215;28;20032;-41
2022/04/24 05:15:51;;;;;;;16.58;8.70;;;;;;;12.64;57.38;99139.53;5077959;28;20053;-42
2022/04/24 05:18:18;;;;;;;18.15;9.23;;;;;;;12.65;57.28;99134.25;5049254;28;20052;-41
2022/04/24 05:20:44;;;;;;;21.33;10.30;;;;;;;12.64;56.95;99142.13;5048724;28;20037;-43
2022/04/24 05:23:10;;;;;;;18.85;9.82;;;;;;;12.63;57.03;99146.50;5048388;28;20045;-43
2022/04/24 05:25:36;;;;;;;19.80;9.48;;;;;;;12.63;57.35;99151.72;5048479;28;20041;-43
2022/04/24 05:28:05;;;;;;;21.80;10.15;;;;;;;12.69;57.12;99142.75;5048108;28;20651;-43
2022/04/24 05:30:32;;;;;;;20.95;9.75;;;;;;;12.73;56.71;99142.50;5039809;28;20052;-42
2022/04/24 05:32:58;;;;;;;21.13;9.75;;;;;;;12.73;56.82;99139.88;5080011;28;20369;-42
2022/04/24 05:35:23;;;;;;;17.73;10.68;;;;;;;12.70;57.07;99140.06;5030695;28;20044;-43
2022/04/24 05:37:49;;;;;;;23.52;9.50;;;;;;;12.70;56.93;99141.81;5045736;28;20061;-43
2022/04/24 05:40:15;;;;;;;18.55;9.85;;;;;;;12.62;57.08;99130.94;5063008;28;20068;-44
2022/04/24 05:42:51;;;;;;;16.75;9.77;;;;;;;12.69;56.96;99140.13;5059117;28;20128;-42
2022/04/24 05:45:18;;;;;;;19.48;9.57;;;;;;;12.59;57.12;99126.72;5048685;28;20057;-41
2022/04/24 05:47:45;;;;;;;19.60;10.13;;;;;;;12.54;56.86;99110.47;5054612;28;20036;-42
2022/04/24 05:50:12;;;;;;;15.80;9.55;;;;;;;12.70;56.80;99129.63;5059841;28;20044;-41
2022/04/24 05:52:38;;;;;;;14.63;8.80;;;;;;;12.70;56.64;99126.19;5067324;28;20618;-42
2022/04/24 05:55:04;;;;;;;25.13;9.50;;;;;;;12.73;56.65;99131.22;5094904;28;20159;-42
2022/04/24 05:57:29;;;;;;;16.20;9.27;;;;;;;12.76;56.29;99120.66;5048109;28;20084;-42
2022/04/24 05:59:55;;;;;;;18.45;9.63;;;;;;;12.74;56.54;99117.25;5044393;28;20140;-44
2022/04/24 06:02:21;;;;;;;22.15;9.82;;;;;;;12.86;56.06;99118.41;5047128;28;20038;-43
2022/04/24 06:04:46;;;;;;;22.02;10.40;;;;;;;12.75;56.12;99098.09;5049321;28;20521;-42
2022/04/24 06:07:12;;;;;;;17.83;10.18;;;;;;;12.90;56.16;99112.09;5048282;28;20459;-43
2022/04/24 06:09:38;;;;;;;20.45;9.32;;;;;;;12.90;55.94;99107.72;5047705;28;20037;-43
2022/04/24 06:12:04;;;;;;;21.60;9.57;;;;;;;12.99;55.99;99107.22;5048216;28;20519;-43
2022/04/24 06:14:30;;;;;;;20.02;10.75;;;;;;;12.98;55.90;99108.13;5047479;28;20037;-44
2022/04/24 06:16:55;;;;;;;20.15;10.25;;;;;;;13.02;56.01;99112.28;5053355;28;20048;-43
2022/04/24 06:19:21;;;;;;;16.17;10.27;;;;;;;13.02;56.10;99107.06;5031715;28;20037;-45
2022/04/24 06:21:47;;;;;;;25.73;10.60;;;;;;;13.03;56.12;99107.91;5042535;28;20154;-44
2022/04/24 06:24:12;;;;;;;21.73;10.35;;;;;;;13.02;56.05;99104.47;5049893;28;20040;-43
2022/04/24 06:26:39;;;;;;;20.55;10.48;;;;;;;13.08;55.92;99111.13;5081095;28;20073;-44
2022/04/24 06:29:05;;;;;;;22.35;10.82;;;;;;;13.14;55.69;99103.81;5056310;28;20037;-43
2022/04/24 06:31:31;;;;;;;30.85;10.82;;;;;;;13.24;55.58;99103.34;5053300;28;20052;-44
2022/04/24 06:33:56;;;;;;;19.92;10.30;;;;;;;13.32;55.34;99106.34;5052869;28;20036;-43
2022/04/24 06:36:22;;;;;;;22.23;10.80;;;;;;;13.34;55.12;99091.47;5055356;28;20528;-43
2022/04/24 06:38:48;;;;;;;19.13;10.88;;;;;;;13.55;54.71;99105.94;5038914;28;20474;-44
2022/04/24 06:41:14;;;;;;;22.05;11.05;;;;;;;13.66;54.59;99103.56;5056516;28;20059;-44
2022/04/24 06:43:40;;;;;;;19.45;10.02;;;;;;;13.76;54.34;99101.28;5056673;28;20047;-44
2022/04/24 06:46:06;;;;;;;19.65;9.23;;;;;;;13.87;53.90;99104.97;5052933;28;20071;-43
2022/04/24 06:48:33;;;;;;;20.40;10.30;;;;;;;13.95;53.69;99100.16;5053041;28;20423;-43
2022/04/24 06:50:59;;;;;;;15.63;9.48;;;;;;;14.04;53.43;99098.75;5076611;28;20508;-45
2022/04/24 06:53:27;;;;;;;19.63;9.60;;;;;;;14.07;53.42;99093.38;5054593;28;20565;-42
2022/04/24 06:55:53;;;;;;;23.20;10.17;;;;;;;14.05;53.14;99092.63;5056188;28;20505;-44
2022/04/24 06:58:19;;;;;;;18.77;9.35;;;;;;;14.09;52.87;99094.13;5073139;28;20037;-43
2022/04/24 07:00:47;;;;;;;15.13;8.88;;;;;;;14.07;52.95;99082.94;5040876;28;20524;-43
2022/04/24 07:03:18;;;;;;;22.35;9.63;;;;;;;14.05;52.58;99079.53;5022144;28;20542;-43
2022/04/24 07:05:44;;;;;;;17.23;8.90;;;;;;;14.17;52.53;99096.28;5036998;28;20041;-42
2022/04/24 07:08:10;;;;;;;21.05;9.02;;;;;;;14.09;52.53;99077.59;5052885;28;20037;-43
2022/04/24 07:10:37;;;;;;;18.00;8.73;;;;;;;14.17;52.55;99091.91;5049409;28;20060;-42
2022/04/24 07:13:03;;;;;;;17.35;9.52;;;;;;;14.21;52.16;99090.78;5028901;28;20033;-42
2022/04/24 07:15:35;;;;;;;29.42;8.90;;;;;;;14.24;52.07;99088.00;5021604;28;20073;-43
2022/04/24 07:18:01;;;;;;;24.05;8.57;;;;;;;14.28;51.67;99091.28;5048739;28;20037;-42
2022/04/24 07:20:29;;;;;;;94.10;14.00;;;;;;;14.33;51.41;99084.84;5052754;28;20041;-42
2022/04/24 07:23:05;;;;;;;15.30;8.25;;;;;;;14.39;51.23;99088.91;5031182;28;20099;-44
2022/04/24 07:25:46;;;;;;;20.17;8.68;;;;;;;14.32;51.02;99061.41;5055086;28;20033;-42
2022/04/24 07:28:13;;;;;;;16.35;8.00;;;;;;;14.48;50.53;99074.44;5084645;28;20048;-44
2022/04/24 07:30:38;;;;;;;22.48;8.38;;;;;;;14.55;50.44;99079.19;5035686;28;20433;-42
2022/04/24 07:33:04;;;;;;;20.67;8.68;;;;;;;14.60;50.38;99074.53;5061718;28;20051;-43
2022/04/24 07:35:33;;;;;;;19.27;8.13;;;;;;;14.69;50.51;99076.59;5059487;28;20838;-42
2022/04/24 07:37:59;;;;;;;14.60;7.57;;;;;;;14.77;50.22;99082.19;5050597;28;20079;-43
2022/04/24 07:40:26;;;;;;;21.55;7.60;;;;;;;14.87;49.93;99065.94;5050167;28;20064;-42
2022/04/24 07:43:03;;;;;;;19.70;7.88;;;;;;;14.89;50.13;99071.91;5048859;28;20068;-46
2022/04/24 07:45:36;;;;;;;16.92;8.00;;;;;;;14.85;49.64;99055.56;5049055;28;20509;-42
2022/04/24 07:48:07;;;;;;;12.95;8.10;;;;;;;14.99;49.55;99068.63;5050536;28;20094;-42
2022/04/24 07:50:40;;;;;;;16.48;7.82;;;;;;;14.98;48.95;99066.09;5048477;28;20053;-42
2022/04/24 07:53:06;;;;;;;19.67;8.48;;;;;;;15.02;48.50;99067.63;5063003;28;20045;-42
2022/04/24 07:55:32;;;;;;;16.45;7.57;;;;;;;15.01;48.30;99072.00;5049575;28;20048;-43
2022/04/24 07:57:59;;;;;;;18.58;7.60;;;;;;;15.06;47.88;99071.72;5047227;28;20110;-44
2022/04/24 08:00:27;;;;;;;15.32;7.45;;;;;;;15.14;47.63;99067.69;5048197;28;20041;-44
2022/04/24 08:03:03;;;;;;;18.85;7.90;;;;;;;15.26;47.29;99073.94;5048708;28;20072;-43
2022/04/24 08:05:31;;;;;;;15.50;7.32;;;;;;;15.35;47.03;99060.25;5035407;28;20060;-43
2022/04/24 08:08:03;;;;;;;15.68;7.13;;;;;;;15.44;47.32;99054.41;5046001;28;20124;-43
2022/04/24 08:10:31;;;;;;;17.60;6.72;;;;;;;15.43;46.99;99057.16;5015298;28;20459;-42
2022/04/24 08:12:57;;;;;;;17.50;7.68;;;;;;;15.36;46.78;99037.50;5046339;28;20044;-44
2022/04/24 08:15:23;;;;;;;16.27;7.05;;;;;;;15.44;46.74;99049.16;5046767;28;20044;-44
2022/04/24 08:17:49;;;;;;;14.15;6.88;;;;;;;15.43;46.46;99051.91;5048786;28;20079;-42
2022/04/24 08:20:16;;;;;;;11.82;6.80;;;;;;;15.51;46.44;99058.34;5047228;28;20061;-44
2022/04/24 08:22:44;;;;;;;21.27;7.45;;;;;;;15.61;46.30;99048.13;5049894;28;20051;-42
2022/04/24 08:25:13;;;;;;;13.60;7.13;;;;;;;15.73;45.95;99054.34;5048190;28;20831;-42
2022/04/24 08:27:39;;;;;;;18.65;7.07;;;;;;;15.82;45.79;99046.72;5049620;28;20080;-43
2022/04/24 08:30:10;;;;;;;16.92;6.72;;;;;;;15.89;46.07;99042.75;5047145;28;20504;-41
2022/04/24 08:32:36;;;;;;;15.18;6.80;;;;;;;15.93;45.58;99044.22;5046231;28;20146;-42
2022/04/24 08:35:03;;;;;;;14.75;6.90;;;;;;;15.98;45.44;99043.91;5046678;28;20056;-42
2022/04/24 08:37:29;;;;;;;14.43;6.57;;;;;;;16.02;45.37;99043.63;5047559;28;20045;-43
2022/04/24 08:39:55;;;;;;;19.40;7.50;;;;;;;16.07;44.80;99043.28;5047451;28;20047;-43
2022/04/24 08:42:21;;;;;;;17.45;7.10;;;;;;;16.13;44.68;99039.44;5046384;28;20041;-43
2022/04/24 08:44:49;;;;;;;18.55;6.72;;;;;;;16.07;44.53;99040.69;5049309;28;20040;-41
2022/04/24 08:47:15;;;;;;;25.05;7.28;;;;;;;16.00;44.15;99040.28;5044745;28;20044;-43
2022/04/24 08:49:41;;;;;;;19.60;7.07;;;;;;;15.99;44.57;99037.75;5046858;28;20040;-42
2022/04/24 08:52:09;;;;;;;12.45;6.65;;;;;;;16.04;44.36;99044.38;5048222;28;20045;-43
2022/04/24 08:54:35;;;;;;;18.67;6.82;;;;;;;16.04;44.33;99044.38;5048614;28;20447;-44
2022/04/24 08:57:01;;;;;;;15.45;7.03;;;;;;;15.99;44.04;99033.34;5047644;28;20044;-41
2022/04/24 08:59:27;;;;;;;22.02;7.72;;;;;;;16.08;43.44;99034.50;5044003;28;20423;-44
2022/04/24 09:01:57;;;;;;;17.17;7.40;;;;;;;16.18;43.02;99025.06;5056138;28;20843;-40
2022/04/24 09:04:24;;;;;;;22.15;7.68;;;;;;;16.39;43.14;99034.09;5046852;28;20619;-43
2022/04/24 09:07:00;;;;;;;28.77;7.47;;;;;;;16.54;42.91;99030.41;5051117;28;20055;-41
2022/04/24 09:09:26;;;;;;;14.18;6.35;;;;;;;16.66;42.81;99036.63;5048040;28;20533;-46
2022/04/24 09:11:52;;;;;;;20.95;7.85;;;;;;;16.74;42.16;99021.22;5064830;28;20058;-43
2022/04/24 09:14:23;;;;;;;18.17;7.75;;;;;;;17.00;42.00;99031.66;5068989;28;20044;-47
2022/04/24 09:16:49;;;;;;;19.08;7.80;;;;;;;17.15;41.63;99026.16;5028133;28;20092;-46
2022/04/24 09:19:21;;;;;;;30.17;13.27;;;;;;;17.26;41.36;99030.66;5047413;28;20044;-42
2022/04/24 09:21:50;;;;;;;22.45;8.32;;;;;;;17.15;41.05;99013.03;5048715;28;20432;-43
2022/04/24 09:24:16;;;;;;;54.15;28.92;;;;;;;17.35;40.88;99029.97;5048713;28;20136;-42
2022/04/24 09:26:56;;;;;;;20.63;8.43;;;;;;;17.45;40.59;99032.75;5048653;28;20106;-42
2022/04/24 09:29:22;;;;;;;45.15;23.35;;;;;;;17.56;40.83;99025.78;5033527;28;20540;-42
2022/04/24 09:31:49;;;;;;;20.90;9.95;;;;;;;17.67;40.64;99023.25;5054171;28;20040;-43
2022/04/24 09:34:20;;;;;;;19.67;8.60;;;;;;;17.74;40.34;99019.19;5057305;28;20516;-43
2022/04/24 09:37:00;;;;;;;21.65;8.75;;;;;;;17.73;39.98;99014.91;5048934;28;20067;-44
2022/04/24 09:39:29;;;;;;;24.05;14.15;;;;;;;17.66;40.25;99013.66;5049509;28;20042;-42
2022/04/24 09:42:05;;;;;;;15.73;7.00;;;;;;;17.70;40.19;99025.63;5055480;28;20040;-43
2022/04/24 09:44:48;;;;;;;18.33;8.10;;;;;;;17.68;40.20;99019.66;5079515;28;20148;-43
2022/04/24 09:47:17;;;;;;;18.88;7.80;;;;;;;17.77;40.36;99012.88;5021390;28;20068;-43
2022/04/24 09:49:46;;;;;;;19.15;7.38;;;;;;;17.82;40.22;99017.78;5056815;28;20039;-42
2022/04/24 09:52:24;;;;;;;17.65;7.47;;;;;;;17.86;40.12;99013.97;5052221;28;20078;-41
2022/04/24 09:54:54;;;;;;;14.40;7.38;;;;;;;18.01;39.76;99011.03;5070884;28;20036;-44
2022/04/24 09:57:23;;;;;;;16.45;7.28;;;;;;;18.10;39.78;99015.63;5043232;28;20092;-44
2022/04/24 09:59:53;;;;;;;18.88;7.07;;;;;;;18.09;39.72;98995.50;5032789;28;20095;-44
2022/04/24 10:02:20;;;;;;;12.73;7.25;;;;;;;18.23;39.63;99004.13;5065713;28;20049;-43
2022/04/24 10:04:46;;;;;;;18.80;7.03;;;;;;;18.23;39.52;99009.41;5045905;28;20143;-45
2022/04/24 10:07:13;;;;;;;14.05;7.75;;;;;;;18.15;40.07;99010.00;5040988;28;20088;-44
2022/04/24 10:09:42;;;;;;;19.98;7.22;;;;;;;18.05;40.48;99007.22;5039484;28;20029;-43
2022/04/24 10:12:16;;;;;;;14.65;7.25;;;;;;;17.76;40.46;98995.41;5044349;28;20051;-44
2022/04/24 10:14:59;;;;;;;18.42;9.48;;;;;;;17.67;40.88;99007.47;5060862;28;20037;-44
2022/04/24 10:17:50;;;;;;;16.60;6.70;;;;;;;17.51;41.18;99003.41;5040509;28;20047;-43
2022/04/24 10:20:34;;;;;;;14.85;7.15;;;;;;;17.40;41.79;98992.84;5061374;28;20037;-43
2022/04/24 10:23:00;;;;;;;16.92;7.00;;;;;;;17.32;41.97;98996.03;5041182;28;20045;-43
2022/04/24 10:25:39;;;;;;;18.23;6.68;;;;;;;17.18;42.83;98999.66;5045594;28;20765;-42
2022/04/24 10:28:19;;;;;;;10.40;6.15;;;;;;;17.05;43.13;98993.63;5059134;28;20486;-46
2022/04/24 10:31:01;;;;;;;14.73;6.18;;;;;;;16.94;43.57;98983.88;5061109;28;20048;-41
2022/04/24 10:33:32;;;;;;;12.73;5.85;;;;;;;16.90;43.29;98998.16;5040081;28;20051;-44
2022/04/24 10:36:11;;;;;;;11.50;6.07;;;;;;;16.95;43.71;98992.59;5038863;28;20037;-46
2022/04/24 10:39:00;;;;;;;11.55;6.40;;;;;;;17.19;43.50;98992.63;5039282;28;20049;-46
2022/04/24 10:41:30;;;;;;;11.90;6.88;;;;;;;17.44;44.10;98995.13;5045211;28;20581;-44
2022/04/24 10:44:08;;;;;;;14.23;7.07;;;;;;;17.53;43.64;98975.25;5040785;28;20754;-46
2022/04/24 10:46:39;;;;;;;16.20;7.22;;;;;;;17.66;43.21;98983.91;5064776;28;20037;-46
2022/04/24 10:49:08;;;;;;;13.82;6.32;;;;;;;17.66;43.49;98982.13;5040702;28;20052;-48
2022/04/24 10:54:40;;;;;;;13.25;6.18;;;;;;;17.45;43.29;98981.03;5041002;28;20053;-47
2022/04/24 10:57:20;;;;;;;14.30;6.72;;;;;;;17.25;43.53;98960.66;5078371;28;20125;-47
2022/04/24 10:59:52;;;;;;;10.60;6.43;;;;;;;17.26;43.61;98978.94;5073032;28;20049;-45
2022/04/24 11:02:22;;;;;;;14.27;5.95;;;;;;;17.05;43.72;98988.38;5046064;28;20043;-49
2022/04/24 11:04:59;;;;;;;9.48;5.95;;;;;;;16.85;44.44;98989.75;5044159;28;20143;-46
2022/04/24 11:07:25;;;;;;;7.45;4.88;;;;;;;16.58;44.57;98985.59;5040391;28;20037;-50
2022/04/24 11:10:05;;;;;;;8.38;4.85;;;;;;;16.24;45.01;98960.88;5078312;28;20542;-47
2022/04/24 11:12:32;;;;;;;8.63;5.13;;;;;;;16.15;46.04;98993.81;5048538;28;20509;-45
2022/04/24 11:15:05;;;;;;;6.68;5.25;;;;;;;15.79;48.28;99001.53;5079574;28;20068;-45
2022/04/24 11:17:31;;;;;;;9.27;4.97;;;;;;;15.53;50.00;99006.72;5052726;28;20547;-47
2022/04/24 11:20:16;;;;;;;6.40;5.03;;;;;;;15.21;52.67;99006.13;5044332;28;20053;-45
2022/04/24 11:22:49;;;;;;;9.02;4.88;;;;;;;14.88;54.05;99018.72;5055160;28;20071;-45
2022/04/24 11:25:16;;;;;;;9.02;5.38;;;;;;;14.59;55.53;99020.53;5076609;28;20045;-44
2022/04/24 11:27:46;;;;;;;8.70;5.72;;;;;;;14.47;56.13;99030.91;5043018;28;20041;-45